Time;durP1;ratioP1;P1;durP2;ratioP2;P2;SDS_P1;SDS_P2;PMS_P1;PMS_P2;Temp;Humidity;BMP_temperature;BMP_pressure;BME280_temperature;BME280_humidity;BME280_pressure;Samples;Min_cycle;Max_cycle;Signal;HPM_P1;HPM_P2
2021/07/14 00:00:14;;;;;;;1.48;0.90;;;;;;;;;;5026599;28;20025;-41
2021/07/14 00:02:39;;;;;;;2.53;1.10;;;;;;;;;;5025986;28;20025;-40
2021/07/14 00:05:10;;;;;;;5.53;2.08;;;;;;;;;;5006497;28;20026;-41
2021/07/14 00:07:36;;;;;;;2.40;0.90;;;;;;;;;;4993616;28;20049;-41
2021/07/14 00:10:26;;;;;;;2.20;1.20;;;;;;;;;;4994208;28;20294;-39
2021/07/14 00:13:00;;;;;;;1.52;0.88;;;;;;;;;;5002780;28;20543;-40
2021/07/14 00:22:07;;;;;;;3.80;1.10;;;;;;;;;;5006219;28;20108;-41
2021/07/14 00:23:31;;;;;;;2.10;1.20;;;;;;;;;;5021168;28;20503;-40
2021/07/14 00:25:57;;;;;;;1.60;0.90;;;;;;;;;;5026214;28;20029;-41
2021/07/14 00:28:23;;;;;;;8.32;2.63;;;;;;;;;;5015065;28;20549;-40
2021/07/14 00:30:56;;;;;;;2.75;1.15;;;;;;;;;;5021337;28;20018;-40
2021/07/14 00:33:23;;;;;;;4.22;1.10;;;;;;;;;;5005537;28;20026;-39
2021/07/14 00:35:48;;;;;;;2.13;1.05;;;;;;;;;;5010638;28;20068;-41
2021/07/14 00:38:14;;;;;;;4.30;1.10;;;;;;;;;;5017545;28;20034;-43
2021/07/14 00:40:39;;;;;;;3.03;1.38;;;;;;;;;;5006376;28;20022;-40
2021/07/14 00:43:05;;;;;;;7.00;2.33;;;;;;;;;;5005075;28;20073;-40
2021/07/14 00:45:32;;;;;;;3.70;1.20;;;;;;;;;;5012196;28;20037;-40
2021/07/14 00:47:59;;;;;;;2.53;1.08;;;;;;;;;;5025742;28;20029;-40
2021/07/14 00:50:25;;;;;;;2.42;1.25;;;;;;;;;;5023940;28;20056;-39
2021/07/14 00:52:50;;;;;;;2.67;0.95;;;;;;;;;;5006189;28;20077;-42
2021/07/14 00:55:16;;;;;;;1.90;1.10;;;;;;;;;;5006143;28;20026;-40
2021/07/14 00:57:41;;;;;;;6.38;1.52;;;;;;;;;;5006285;28;20021;-40
2021/07/14 01:00:09;;;;;;;3.13;1.60;;;;;;;;;;5017489;28;20025;-40
2021/07/14 01:02:35;;;;;;;2.65;1.30;;;;;;;;;;5022896;28;20029;-40
2021/07/14 01:05:06;;;;;;;5.90;2.10;;;;;;;;;;5006425;28;20030;-42
2021/07/14 01:07:50;;;;;;;;;;;;;;;;;;4999310;28;20037;-40
2021/07/14 01:10:33;;;;;;;1.88;1.02;;;;;;;;;;5004569;28;19928;-40
2021/07/14 01:13:06;;;;;;;2.00;1.00;;;;;;;;;;5008949;28;20033;-41
2021/07/14 01:15:48;;;;;;;4.97;1.27;;;;;;;;;;5006228;28;20096;-39
2021/07/14 01:18:30;;;;;;;2.65;1.33;;;;;;;;;;5005689;28;20072;-41
2021/07/14 01:21:08;;;;;;;2.40;1.00;;;;;;;;;;5000506;28;20018;-40
2021/07/14 01:23:49;;;;;;;2.33;1.05;;;;;;;;;;5005999;28;20060;-40
2021/07/14 01:26:18;;;;;;;2.63;1.10;;;;;;;;;;5004219;28;20053;-40
2021/07/14 01:28:47;;;;;;;1.85;1.02;;;;;;;;;;5005734;28;20029;-42
2021/07/14 01:31:17;;;;;;;3.40;1.20;;;;;;;;;;5006243;28;20599;-40
2021/07/14 01:33:44;;;;;;;3.25;1.10;;;;;;;;;;5020301;28;20104;-39
2021/07/14 01:36:15;;;;;;;2.95;1.08;;;;;;;;;;5008287;28;20033;-39
2021/07/14 01:38:42;;;;;;;5.18;1.83;;;;;;;;;;5005576;28;20393;-43
2021/07/14 01:41:09;;;;;;;2.20;1.13;;;;;;;;;;5006107;28;20036;-42
2021/07/14 01:43:39;;;;;;;3.80;1.10;;;;;;;;;;5005771;28;20204;-47
2021/07/14 01:46:07;;;;;;;2.70;1.08;;;;;;;;;;5005474;28;20026;-44
2021/07/14 01:48:37;;;;;;;4.82;1.05;;;;;;;;;;5005415;28;20029;-39
2021/07/14 01:51:04;;;;;;;4.55;1.10;;;;;;;;;;5003001;28;20108;-39
2021/07/14 01:53:30;;;;;;;1.95;1.10;;;;;;;;;;5004409;28;20041;-41
2021/07/14 01:55:56;;;;;;;3.28;1.15;;;;;;;;;;5008772;28;20022;-39
2021/07/14 01:58:26;;;;;;;3.42;1.00;;;;;;;;;;5006325;28;20052;-40
2021/07/14 02:00:53;;;;;;;2.30;1.00;;;;;;;;;;5027905;28;20021;-39
2021/07/14 02:03:41;;;;;;;3.60;1.02;;;;;;;;;;5028236;28;20036;-39
2021/07/14 02:06:07;;;;;;;3.03;1.20;;;;;;;;;;5029124;28;20512;-39
2021/07/14 02:08:36;;;;;;;2.47;1.00;;;;;;;;;;5011455;28;20034;-39
2021/07/14 02:11:02;;;;;;;4.30;1.30;;;;;;;;;;5008779;28;20026;-39
2021/07/14 02:13:30;;;;;;;3.30;1.10;;;;;;;;;;5009092;28;20440;-39
2021/07/14 02:15:59;;;;;;;6.85;1.38;;;;;;;;;;5008364;28;20022;-41
2021/07/14 02:18:28;;;;;;;3.67;1.77;;;;;;;;;;5008131;28;20025;-40
2021/07/14 02:20:56;;;;;;;2.97;1.00;;;;;;;;;;5007485;28;20022;-41
2021/07/14 02:23:22;;;;;;;2.75;0.95;;;;;;;;;;4987990;28;20386;-39
2021/07/14 02:25:47;;;;;;;3.17;1.20;;;;;;;;;;5019353;28;20626;-40
2021/07/14 02:28:13;;;;;;;2.83;1.20;;;;;;;;;;5026287;28;20048;-39
2021/07/14 02:30:38;;;;;;;4.07;1.30;;;;;;;;;;5027833;28;20034;-39
2021/07/14 02:33:12;;;;;;;4.60;1.35;;;;;;;;;;5019698;28;20014;-40
2021/07/14 02:35:40;;;;;;;2.35;1.05;;;;;;;;;;5011262;28;20025;-40
2021/07/14 02:38:14;;;;;;;2.45;1.15;;;;;;;;;;5021002;28;20026;-39
2021/07/14 02:40:55;;;;;;;2.28;1.20;;;;;;;;;;5008196;28;20053;-40
2021/07/14 02:43:26;;;;;;;4.53;1.70;;;;;;;;;;5008698;28;20026;-39
2021/07/14 02:45:52;;;;;;;3.40;1.30;;;;;;;;;;5008231;28;20128;-40
2021/07/14 02:48:19;;;;;;;2.22;1.13;;;;;;;;;;5005737;28;20714;-40
2021/07/14 02:50:45;;;;;;;4.90;1.42;;;;;;;;;;5013640;28;20392;-41
2021/07/14 02:53:14;;;;;;;3.75;1.20;;;;;;;;;;5012149;28;20080;-45
2021/07/14 02:55:41;;;;;;;1.55;1.02;;;;;;;;;;5007943;28;20036;-40
2021/07/14 02:58:09;;;;;;;5.47;1.30;;;;;;;;;;5007815;28;20029;-40
2021/07/14 03:00:39;;;;;;;2.72;1.45;;;;;;;;;;5021667;28;20025;-40
2021/07/14 03:03:09;;;;;;;4.22;1.70;;;;;;;;;;5011732;28;20057;-40
2021/07/14 03:05:36;;;;;;;4.50;1.30;;;;;;;;;;5005714;28;20030;-43
2021/07/14 03:08:05;;;;;;;2.22;1.23;;;;;;;;;;5000597;28;20037;-40
2021/07/14 03:10:31;;;;;;;2.72;1.30;;;;;;;;;;5008155;28;20025;-39
2021/07/14 03:13:02;;;;;;;3.70;1.42;;;;;;;;;;5005795;28;20032;-40
2021/07/14 03:15:28;;;;;;;2.70;1.40;;;;;;;;;;5015258;28;20025;-42
2021/07/14 03:17:54;;;;;;;5.00;1.60;;;;;;;;;;5024346;28;20388;-43
2021/07/14 03:20:20;;;;;;;3.83;1.60;;;;;;;;;;5007382;28;20445;-44
2021/07/14 03:22:48;;;;;;;3.63;1.63;;;;;;;;;;5007899;28;20567;-40
2021/07/14 03:25:15;;;;;;;4.28;1.55;;;;;;;;;;5006490;28;20454;-40
2021/07/14 03:27:41;;;;;;;2.90;1.27;;;;;;;;;;5007589;28;20028;-41
2021/07/14 03:30:07;;;;;;;2.40;1.27;;;;;;;;;;5007376;28;20026;-42
2021/07/14 03:32:33;;;;;;;5.68;1.58;;;;;;;;;;5006323;28;20022;-40
2021/07/14 03:34:58;;;;;;;5.50;1.73;;;;;;;;;;5007030;28;20696;-43
2021/07/14 03:37:24;;;;;;;4.07;1.65;;;;;;;;;;5022993;28;20052;-42
2021/07/14 03:39:50;;;;;;;4.68;1.83;;;;;;;;;;5003502;28;20464;-40
2021/07/14 03:42:17;;;;;;;5.25;1.40;;;;;;;;;;5024618;28;20036;-41
2021/07/14 03:44:46;;;;;;;2.72;1.52;;;;;;;;;;5026624;28;20601;-39
2021/07/14 03:47:14;;;;;;;3.00;1.52;;;;;;;;;;4987217;28;20026;-41
2021/07/14 03:49:39;;;;;;;3.85;2.00;;;;;;;;;;4987319;28;20036;-41
2021/07/14 03:52:06;;;;;;;3.25;1.73;;;;;;;;;;4992586;28;20030;-41
2021/07/14 03:54:32;;;;;;;10.93;2.70;;;;;;;;;;5007905;28;20080;-39
2021/07/14 03:56:58;;;;;;;5.30;1.90;;;;;;;;;;5003835;28;20030;-39
2021/07/14 03:59:25;;;;;;;4.68;2.35;;;;;;;;;;5010763;28;20657;-40
2021/07/14 04:01:51;;;;;;;5.18;1.67;;;;;;;;;;5024814;28;20025;-41
2021/07/14 04:04:16;;;;;;;4.18;1.73;;;;;;;;;;5020078;28;20558;-40
2021/07/14 04:06:47;;;;;;;4.00;1.90;;;;;;;;;;5010243;28;20505;-40
2021/07/14 04:09:19;;;;;;;3.20;1.83;;;;;;;;;;5017800;28;20029;-40
2021/07/14 04:11:44;;;;;;;5.25;1.63;;;;;;;;;;5024800;28;20033;-40
2021/07/14 04:14:10;;;;;;;3.35;1.60;;;;;;;;;;5018660;28;20037;-43
2021/07/14 04:16:35;;;;;;;4.35;1.73;;;;;;;;;;5024078;28;20132;-41
2021/07/14 04:19:01;;;;;;;3.42;1.52;;;;;;;;;;5016098;28;20056;-40
2021/07/14 04:21:27;;;;;;;3.60;1.60;;;;;;;;;;5020662;28;20378;-41
2021/07/14 04:23:54;;;;;;;3.38;1.85;;;;;;;;;;5022601;28;20030;-42
2021/07/14 04:26:19;;;;;;;4.00;1.90;;;;;;;;;;5017024;28;20112;-42
2021/07/14 04:28:45;;;;;;;5.38;2.40;;;;;;;;;;5014721;28;20117;-39
2021/07/14 04:31:10;;;;;;;4.88;1.83;;;;;;;;;;5017699;28;20383;-40
2021/07/14 04:33:35;;;;;;;5.70;3.17;;;;;;;;;;5013307;28;20128;-45
2021/07/14 04:36:01;;;;;;;5.82;2.75;;;;;;;;;;5018325;28;20397;-43
2021/07/14 04:38:26;;;;;;;6.88;3.10;;;;;;;;;;5013806;28;20037;-40
2021/07/14 04:40:52;;;;;;;8.25;3.55;;;;;;;;;;5022800;28;20822;-42
2021/07/14 04:43:18;;;;;;;5.47;2.30;;;;;;;;;;5024308;28;20198;-39
2021/07/14 04:45:43;;;;;;;5.25;2.40;;;;;;;;;;5021671;28;20034;-39
2021/07/14 04:48:08;;;;;;;4.20;2.25;;;;;;;;;;5024001;28;20829;-43
2021/07/14 04:50:34;;;;;;;6.75;2.40;;;;;;;;;;5023647;28;20480;-42
2021/07/14 04:52:59;;;;;;;6.22;2.25;;;;;;;;;;5008160;28;20030;-41
2021/07/14 04:55:24;;;;;;;5.05;1.73;;;;;;;;;;5015047;28;20515;-41
2021/07/14 04:57:50;;;;;;;5.68;1.85;;;;;;;;;;5002398;28;20036;-41
2021/07/14 05:00:18;;;;;;;3.42;2.10;;;;;;;;;;5016991;28;20018;-40
2021/07/14 05:02:45;;;;;;;3.22;1.70;;;;;;;;;;5004327;28;20045;-41
2021/07/14 05:05:13;;;;;;;5.18;1.70;;;;;;;;;;5006352;28;20022;-43
2021/07/14 05:07:38;;;;;;;4.35;1.70;;;;;;;;;;5013727;28;20053;-45
2021/07/14 05:10:04;;;;;;;4.03;1.42;;;;;;;;;;5005555;28;20124;-40
2021/07/14 05:12:30;;;;;;;5.45;2.10;;;;;;;;;;5014651;28;20100;-40
2021/07/14 05:14:55;;;;;;;4.75;1.83;;;;;;;;;;5018553;28;20035;-40
2021/07/14 05:17:20;;;;;;;4.50;2.00;;;;;;;;;;5006306;28;20032;-42
2021/07/14 05:19:46;;;;;;;4.75;1.70;;;;;;;;;;5019291;28;20504;-40
2021/07/14 05:22:12;;;;;;;3.08;1.60;;;;;;;;;;5012873;28;20630;-40
2021/07/14 05:24:37;;;;;;;3.83;1.58;;;;;;;;;;5021100;28;20034;-40
2021/07/14 05:27:03;;;;;;;6.32;1.70;;;;;;;;;;5008091;28;20028;-39
2021/07/14 05:29:28;;;;;;;5.28;1.80;;;;;;;;;;5006972;28;20122;-41
2021/07/14 05:31:54;;;;;;;4.38;1.60;;;;;;;;;;5027584;28;20056;-42
2021/07/14 05:34:19;;;;;;;7.05;1.80;;;;;;;;;;5023017;28;20029;-43
2021/07/14 05:36:44;;;;;;;3.83;1.90;;;;;;;;;;4998563;28;20038;-41
2021/07/14 05:39:10;;;;;;;2.83;1.67;;;;;;;;;;5006205;28;20024;-43
2021/07/14 05:41:36;;;;;;;3.22;1.70;;;;;;;;;;5006060;28;20034;-42
2021/07/14 05:44:02;;;;;;;5.68;1.70;;;;;;;;;;5022292;28;20022;-43
2021/07/14 05:46:27;;;;;;;3.50;1.50;;;;;;;;;;4990825;28;20038;-44
2021/07/14 05:48:55;;;;;;;4.38;1.60;;;;;;;;;;4988598;28;20021;-42
2021/07/14 05:51:20;;;;;;;5.10;1.50;;;;;;;;;;5000719;28;20030;-42
2021/07/14 05:53:46;;;;;;;2.95;1.70;;;;;;;;;;5009421;28;20407;-49
2021/07/14 05:56:11;;;;;;;2.80;1.50;;;;;;;;;;5008259;28;20022;-43
2021/07/14 05:58:36;;;;;;;5.10;2.03;;;;;;;;;;5008893;28;20030;-41
2021/07/14 06:01:02;;;;;;;2.17;1.40;;;;;;;;;;5027516;28;20029;-45
2021/07/14 06:03:27;;;;;;;3.03;1.55;;;;;;;;;;5023903;28;20034;-44
2021/07/14 06:05:52;;;;;;;3.60;1.40;;;;;;;;;;5009068;28;20037;-41
2021/07/14 06:08:18;;;;;;;5.63;1.98;;;;;;;;;;5007516;28;20029;-46
2021/07/14 06:10:43;;;;;;;3.92;1.60;;;;;;;;;;5009179;28;20026;-43
2021/07/14 06:13:08;;;;;;;4.45;1.60;;;;;;;;;;5003764;28;20061;-41
2021/07/14 06:15:34;;;;;;;2.80;1.40;;;;;;;;;;5008970;28;20029;-41
2021/07/14 06:18:01;;;;;;;4.35;1.50;;;;;;;;;;5007823;28;20045;-41
2021/07/14 06:20:26;;;;;;;2.38;1.50;;;;;;;;;;5008510;28;20022;-41
2021/07/14 06:22:51;;;;;;;2.13;1.10;;;;;;;;;;5008677;28;20033;-42
2021/07/14 06:25:17;;;;;;;4.97;1.60;;;;;;;;;;5008176;28;20025;-42
2021/07/14 06:27:44;;;;;;;4.25;1.73;;;;;;;;;;5008311;28;20539;-46
2021/07/14 06:30:11;;;;;;;4.90;1.63;;;;;;;;;;5008972;28;20034;-43
2021/07/14 06:32:36;;;;;;;4.43;1.60;;;;;;;;;;5006882;28;20033;-42
2021/07/14 06:35:03;;;;;;;3.30;1.55;;;;;;;;;;5008332;28;20022;-45
2021/07/14 06:37:29;;;;;;;3.40;1.33;;;;;;;;;;5008307;28;20030;-47
2021/07/14 06:39:54;;;;;;;3.53;1.60;;;;;;;;;;5008419;28;20496;-42
2021/07/14 06:42:19;;;;;;;2.92;1.58;;;;;;;;;;5007158;28;20025;-42
2021/07/14 06:44:45;;;;;;;4.05;1.65;;;;;;;;;;5008215;28;20040;-43
2021/07/14 06:47:11;;;;;;;5.68;2.00;;;;;;;;;;5007967;28;20021;-45
2021/07/14 06:49:36;;;;;;;4.63;1.67;;;;;;;;;;5007973;28;20820;-46
2021/07/14 06:52:02;;;;;;;3.30;1.77;;;;;;;;;;5008072;28;20517;-43
2021/07/14 06:54:28;;;;;;;2.78;1.40;;;;;;;;;;5007592;28;20450;-42
2021/07/14 06:56:53;;;;;;;3.35;1.70;;;;;;;;;;5007430;28;20022;-42
2021/07/14 06:59:19;;;;;;;4.47;1.60;;;;;;;;;;5012579;28;20052;-41
2021/07/14 07:01:44;;;;;;;2.88;1.40;;;;;;;;;;5019989;28;20022;-45
2021/07/14 07:04:09;;;;;;;3.35;1.75;;;;;;;;;;5007420;28;20028;-44
2021/07/14 07:06:35;;;;;;;5.78;1.77;;;;;;;;;;5005919;28;20061;-42
2021/07/14 07:09:00;;;;;;;2.53;1.50;;;;;;;;;;5019105;28;20017;-43
2021/07/14 07:11:26;;;;;;;3.38;1.50;;;;;;;;;;5024214;28;20112;-41
2021/07/14 07:13:51;;;;;;;2.60;1.40;;;;;;;;;;5012836;28;20033;-42
2021/07/14 07:16:16;;;;;;;2.67;1.60;;;;;;;;;;5020880;28;20087;-45
2021/07/14 07:18:42;;;;;;;4.63;1.88;;;;;;;;;;5014476;28;20045;-41
2021/07/14 07:21:08;;;;;;;8.18;1.60;;;;;;;;;;5012078;28;20626;-44
2021/07/14 07:23:36;;;;;;;7.25;2.03;;;;;;;;;;5022743;28;20040;-44
2021/07/14 07:26:02;;;;;;;2.90;1.52;;;;;;;;;;5022141;28;20088;-46
2021/07/14 07:28:33;;;;;;;3.28;2.20;;;;;;;;;;5012263;28;20225;-42
2021/07/14 07:30:58;;;;;;;5.30;1.40;;;;;;;;;;5003020;28;20022;-45
2021/07/14 07:33:24;;;;;;;4.78;1.70;;;;;;;;;;5005881;28;20045;-45
2021/07/14 07:35:49;;;;;;;2.97;1.67;;;;;;;;;;4995486;28;20033;-42
2021/07/14 07:38:14;;;;;;;3.78;1.52;;;;;;;;;;5004162;28;20044;-43
2021/07/14 07:40:40;;;;;;;4.97;1.70;;;;;;;;;;5013287;28;20029;-43
2021/07/14 07:43:05;;;;;;;3.13;1.50;;;;;;;;;;5025435;28;20025;-45
2021/07/14 07:45:31;;;;;;;4.93;1.83;;;;;;;;;;5014226;28;20040;-43
2021/07/14 07:47:56;;;;;;;5.72;1.60;;;;;;;;;;5003475;28;20560;-43
2021/07/14 07:50:22;;;;;;;2.80;1.30;;;;;;;;;;5012632;28;20662;-43
2021/07/14 07:52:47;;;;;;;6.45;1.88;;;;;;;;;;5017175;28;20033;-44
2021/07/14 07:55:14;;;;;;;3.50;1.55;;;;;;;;;;5010812;28;20068;-42
2021/07/14 07:57:41;;;;;;;5.07;1.90;;;;;;;;;;5024444;28;20075;-42
2021/07/14 08:00:18;;;;;;;4.75;1.40;;;;;;;;;;5005488;28;20030;-43
2021/07/14 08:02:43;;;;;;;3.95;1.50;;;;;;;;;;5013471;28;20475;-41
2021/07/14 08:05:09;;;;;;;3.85;1.48;;;;;;;;;;5007374;28;20201;-46
2021/07/14 08:07:35;;;;;;;2.40;1.20;;;;;;;;;;4999811;28;20037;-42
2021/07/14 08:10:00;;;;;;;2.78;1.50;;;;;;;;;;5007867;28;20184;-44
2021/07/14 08:12:26;;;;;;;3.25;1.30;;;;;;;;;;5010042;28;20033;-39
2021/07/14 08:14:51;;;;;;;1.70;1.10;;;;;;;;;;5005225;28;20025;-40
2021/07/14 08:17:16;;;;;;;2.28;1.27;;;;;;;;;;5003768;28;20045;-42
2021/07/14 08:19:42;;;;;;;3.88;1.27;;;;;;;;;;5024475;28;20027;-41
2021/07/14 08:22:07;;;;;;;2.40;1.30;;;;;;;;;;5015353;28;20021;-40
2021/07/14 08:24:32;;;;;;;3.08;1.17;;;;;;;;;;5023898;28;20033;-42
2021/07/14 08:26:58;;;;;;;2.85;1.10;;;;;;;;;;5012866;28;20056;-43
2021/07/14 08:29:23;;;;;;;4.00;1.55;;;;;;;;;;5002006;28;20084;-42
2021/07/14 08:31:51;;;;;;;2.30;1.30;;;;;;;;;;5000925;28;20051;-40
2021/07/14 08:34:18;;;;;;;1.75;1.20;;;;;;;;;;5008538;28;20151;-43
2021/07/14 08:36:44;;;;;;;2.75;1.42;;;;;;;;;;5003331;28;20109;-43
2021/07/14 08:39:09;;;;;;;2.97;1.35;;;;;;;;;;5009761;28;20033;-42
2021/07/14 08:41:39;;;;;;;2.47;1.38;;;;;;;;;;5023472;28;20503;-42
2021/07/14 08:44:05;;;;;;;2.30;1.50;;;;;;;;;;5019430;28;20026;-42
2021/07/14 08:46:30;;;;;;;4.35;1.33;;;;;;;;;;5004184;28;20126;-41
2021/07/14 08:48:58;;;;;;;3.15;1.50;;;;;;;;;;4988789;28;20513;-42
2021/07/14 08:51:23;;;;;;;2.88;1.60;;;;;;;;;;5006979;28;20100;-42
2021/07/14 08:53:49;;;;;;;2.15;1.40;;;;;;;;;;5005428;28;20168;-42
2021/07/14 08:56:15;;;;;;;2.13;1.30;;;;;;;;;;5006385;28;20044;-41
2021/07/14 08:58:42;;;;;;;3.25;1.40;;;;;;;;;;5004973;28;20629;-40
2021/07/14 09:01:07;;;;;;;2.42;1.30;;;;;;;;;;5013788;28;20025;-41
2021/07/14 09:03:32;;;;;;;4.03;1.40;;;;;;;;;;5006957;28;20481;-43
2021/07/14 09:05:58;;;;;;;2.45;1.52;;;;;;;;;;5005006;28;20492;-42
2021/07/14 09:08:23;;;;;;;4.07;1.58;;;;;;;;;;5005940;28;20052;-43
2021/07/14 09:10:50;;;;;;;2.20;1.52;;;;;;;;;;5005112;28;20477;-39
2021/07/14 09:13:15;;;;;;;3.03;1.40;;;;;;;;;;4999704;28;20108;-43
2021/07/14 09:15:50;;;;;;;2.42;1.50;;;;;;;;;;5001361;28;20116;-40
2021/07/14 09:18:20;;;;;;;3.95;1.60;;;;;;;;;;5025089;28;20029;-41
2021/07/14 09:20:46;;;;;;;2.30;1.30;;;;;;;;;;5012482;28;20029;-41
2021/07/14 09:23:16;;;;;;;2.28;1.50;;;;;;;;;;5006285;28;20032;-40
2021/07/14 09:25:44;;;;;;;4.38;1.50;;;;;;;;;;5001366;28;20392;-40
2021/07/14 09:28:10;;;;;;;4.25;1.50;;;;;;;;;;5005074;28;20080;-42
2021/07/14 09:30:37;;;;;;;3.17;1.70;;;;;;;;;;5004786;28;20125;-42
2021/07/14 09:33:11;;;;;;;4.05;1.50;;;;;;;;;;5004707;28;20025;-45
2021/07/14 09:35:45;;;;;;;4.07;1.98;;;;;;;;;;5005188;28;20034;-42
2021/07/14 09:38:31;;;;;;;4.00;1.80;;;;;;;;;;5004177;28;20584;-42
2021/07/14 09:41:00;;;;;;;1.90;1.40;;;;;;;;;;5004662;28;20525;-40
2021/07/14 09:43:26;;;;;;;5.35;1.90;;;;;;;;;;4986051;28;20093;-42
2021/07/14 09:45:57;;;;;;;2.80;1.70;;;;;;;;;;4985611;28;20049;-42
2021/07/14 09:48:22;;;;;;;3.35;1.80;;;;;;;;;;4996151;28;20088;-44
2021/07/14 09:51:13;;;;;;;3.72;1.80;;;;;;;;;;5005388;28;20429;-42
2021/07/14 09:53:42;;;;;;;2.78;1.60;;;;;;;;;;5024854;28;20030;-47
2021/07/14 09:56:22;;;;;;;2.80;1.70;;;;;;;;;;5024916;28;20029;-42
2021/07/14 09:59:02;;;;;;;4.75;1.70;;;;;;;;;;5010358;28;20030;-42
2021/07/14 10:01:34;;;;;;;1.95;1.45;;;;;;;;;;5004006;28;20033;-40
2021/07/14 10:04:00;;;;;;;3.22;1.80;;;;;;;;;;5003426;28;20017;-42
2021/07/14 10:06:26;;;;;;;2.63;1.70;;;;;;;;;;5005791;28;20133;-41
2021/07/14 10:08:51;;;;;;;3.22;2.00;;;;;;;;;;4992158;28;20062;-40
2021/07/14 10:11:22;;;;;;;3.97;2.00;;;;;;;;;;4997459;28;20030;-40
2021/07/14 10:14:00;;;;;;;4.68;1.90;;;;;;;;;;5005477;28;20473;-43
2021/07/14 10:16:33;;;;;;;2.53;1.65;;;;;;;;;;5006639;28;20366;-42
2021/07/14 10:19:02;;;;;;;2.67;1.80;;;;;;;;;;5007143;28;20026;-44
2021/07/14 10:21:29;;;;;;;5.05;1.88;;;;;;;;;;5008755;28;20029;-43
2021/07/14 10:23:55;;;;;;;3.05;1.85;;;;;;;;;;5008402;28;20101;-41
2021/07/14 10:26:20;;;;;;;3.75;1.75;;;;;;;;;;5008671;28;20049;-43
2021/07/14 10:28:48;;;;;;;2.85;1.80;;;;;;;;;;5006226;28;20061;-39
2021/07/14 10:31:14;;;;;;;3.22;2.00;;;;;;;;;;5012216;28;20032;-42
2021/07/14 10:33:40;;;;;;;2.67;1.77;;;;;;;;;;5008393;28;20029;-40
2021/07/14 10:36:07;;;;;;;3.85;2.08;;;;;;;;;;5009552;28;20033;-41
2021/07/14 10:38:33;;;;;;;3.85;1.80;;;;;;;;;;4999512;28;20496;-40
2021/07/14 10:40:59;;;;;;;3.97;1.70;;;;;;;;;;5007022;28;20032;-46
2021/07/14 10:43:27;;;;;;;5.32;1.85;;;;;;;;;;5006534;28;20085;-43
2021/07/14 10:45:53;;;;;;;2.45;1.40;;;;;;;;;;5007369;28;20109;-42
2021/07/14 10:48:22;;;;;;;4.68;1.67;;;;;;;;;;5006117;28;20033;-43
2021/07/14 10:50:49;;;;;;;3.30;1.67;;;;;;;;;;5006269;28;20030;-42
2021/07/14 10:53:17;;;;;;;3.13;1.40;;;;;;;;;;5014431;28;20022;-42
2021/07/14 10:55:44;;;;;;;3.05;1.65;;;;;;;;;;5005433;28;20026;-41
2021/07/14 10:58:16;;;;;;;3.22;1.52;;;;;;;;;;5001897;28;20178;-42
2021/07/14 11:00:45;;;;;;;5.18;1.50;;;;;;;;;;5000063;28;20026;-41
2021/07/14 11:03:41;;;;;;;2.85;1.48;;;;;;;;;;5005228;28;20030;-43
2021/07/14 11:06:08;;;;;;;2.83;1.52;;;;;;;;;;4994059;28;20045;-40
2021/07/14 11:08:37;;;;;;;4.57;1.83;;;;;;;;;;5006995;28;20057;-40
2021/07/14 11:11:02;;;;;;;3.58;1.50;;;;;;;;;;5005376;28;20037;-40
2021/07/14 11:13:30;;;;;;;3.03;1.40;;;;;;;;;;5006293;28;20109;-41
2021/07/14 11:15:58;;;;;;;2.55;1.50;;;;;;;;;;5009885;28;20203;-43
2021/07/14 11:18:29;;;;;;;2.80;1.42;;;;;;;;;;4988404;28;20076;-42
2021/07/14 11:20:56;;;;;;;2.90;1.40;;;;;;;;;;5003388;28;20160;-42
2021/07/14 11:23:26;;;;;;;2.10;1.30;;;;;;;;;;5007347;28;20105;-41
2021/07/14 11:25:57;;;;;;;3.10;1.33;;;;;;;;;;5007431;28;20053;-42
2021/07/14 11:28:24;;;;;;;4.47;1.40;;;;;;;;;;5006316;28;20505;-40
2021/07/14 11:30:52;;;;;;;2.63;1.10;;;;;;;;;;5007039;28;20684;-45
2021/07/14 11:33:27;;;;;;;3.92;1.40;;;;;;;;;;5007924;28;20025;-43
2021/07/14 11:36:22;;;;;;;2.22;1.38;;;;;;;;;;5006757;28;20018;-41
2021/07/14 11:38:53;;;;;;;1.67;1.10;;;;;;;;;;4997776;28;20103;-42
2021/07/14 11:41:26;;;;;;;1.87;1.13;;;;;;;;;;4997605;28;20405;-48
2021/07/14 11:43:54;;;;;;;2.10;0.98;;;;;;;;;;4988110;28;20260;-48
2021/07/14 11:46:27;;;;;;;2.80;1.10;;;;;;;;;;4999507;28;20061;-44
2021/07/14 11:49:22;;;;;;;2.47;1.08;;;;;;;;;;5003837;28;20032;-44
2021/07/14 11:51:48;;;;;;;1.90;1.15;;;;;;;;;;4995528;28;20053;-41
2021/07/14 11:54:24;;;;;;;1.40;0.90;;;;;;;;;;5006512;28;20392;-49
2021/07/14 11:56:51;;;;;;;2.03;1.02;;;;;;;;;;5002518;28;20112;-40
2021/07/14 11:59:28;;;;;;;2.88;1.27;;;;;;;;;;5009046;28;20413;-43
2021/07/14 12:02:02;;;;;;;1.40;1.00;;;;;;;;;;5012275;28;20018;-40
2021/07/14 12:04:28;;;;;;;1.65;1.10;;;;;;;;;;5007413;28;20393;-47
2021/07/14 12:07:00;;;;;;;2.08;1.00;;;;;;;;;;5005236;28;20017;-43
2021/07/14 12:09:29;;;;;;;2.20;0.93;;;;;;;;;;5007424;28;20397;-47
2021/07/14 12:12:00;;;;;;;1.23;0.77;;;;;;;;;;5006530;28;20548;-42
2021/07/14 12:14:36;;;;;;;1.83;1.13;;;;;;;;;;5005231;28;20096;-44
2021/07/14 12:17:25;;;;;;;1.63;0.80;;;;;;;;;;5000710;28;20034;-40
2021/07/14 12:19:56;;;;;;;1.55;0.90;;;;;;;;;;4997416;28;20045;-40
2021/07/14 12:22:33;;;;;;;2.00;1.00;;;;;;;;;;5005465;28;20025;-45
2021/07/14 12:25:02;;;;;;;1.70;0.90;;;;;;;;;;4999145;28;20025;-45
2021/07/14 12:27:38;;;;;;;3.35;1.00;;;;;;;;;;5018504;28;20037;-44
2021/07/14 12:30:09;;;;;;;1.48;1.00;;;;;;;;;;5021257;28;20489;-48
2021/07/14 12:32:52;;;;;;;1.65;1.10;;;;;;;;;;5023471;28;20638;-44
2021/07/14 12:35:27;;;;;;;2.25;1.00;;;;;;;;;;4999392;28;20030;-44
2021/07/14 12:38:00;;;;;;;1.65;1.00;;;;;;;;;;4990299;28;20045;-42
2021/07/14 12:40:29;;;;;;;2.65;0.85;;;;;;;;;;5006832;28;20022;-41
2021/07/14 12:43:00;;;;;;;1.50;0.90;;;;;;;;;;5006614;28;20041;-40
2021/07/14 12:45:27;;;;;;;;;;;;;;;;;;5006603;28;20036;-43
2021/07/14 12:47:53;;;;;;;1.75;0.82;;;;;;;;;;5006301;28;19913;-40
2021/07/14 12:50:26;;;;;;;2.55;0.90;;;;;;;;;;4999222;28;20057;-41
2021/07/14 12:52:56;;;;;;;1.98;1.00;;;;;;;;;;4987083;28;20073;-42
2021/07/14 12:55:22;;;;;;;1.48;1.02;;;;;;;;;;4986870;28;20054;-40
2021/07/14 12:57:49;;;;;;;3.28;0.80;;;;;;;;;;4985048;28;20045;-42
2021/07/14 13:00:18;;;;;;;3.33;0.98;;;;;;;;;;5010641;28;20025;-42
2021/07/14 13:02:47;;;;;;;1.90;1.05;;;;;;;;;;5025598;28;20041;-43
2021/07/14 13:05:15;;;;;;;4.65;1.15;;;;;;;;;;5021478;28;20045;-41
2021/07/14 13:07:48;;;;;;;2.22;1.00;;;;;;;;;;5005638;28;20022;-40
2021/07/14 13:10:16;;;;;;;2.65;0.95;;;;;;;;;;5005725;28;20109;-40
2021/07/14 13:12:41;;;;;;;1.50;0.77;;;;;;;;;;5005955;28;20026;-42
2021/07/14 13:15:09;;;;;;;1.80;0.80;;;;;;;;;;5005637;28;20608;-41
2021/07/14 13:17:37;;;;;;;2.25;0.80;;;;;;;;;;5005395;28;20536;-46
2021/07/14 13:20:18;;;;;;;2.30;0.73;;;;;;;;;;5001914;28;20023;-40
2021/07/14 13:22:59;;;;;;;1.63;1.02;;;;;;;;;;5019326;28;20041;-43
2021/07/14 13:25:24;;;;;;;1.63;0.82;;;;;;;;;;5022047;28;20053;-42
2021/07/14 13:27:54;;;;;;;1.55;0.90;;;;;;;;;;5022662;28;20496;-45
2021/07/14 13:30:32;;;;;;;1.85;0.80;;;;;;;;;;5002943;28;20543;-41
2021/07/14 13:33:04;;;;;;;1.35;0.90;;;;;;;;;;5022835;28;20037;-44
2021/07/14 13:35:34;;;;;;;1.10;0.73;;;;;;;;;;5014524;28;20512;-44
2021/07/14 13:38:00;;;;;;;1.40;0.90;;;;;;;;;;5015523;28;20108;-41
2021/07/14 13:40:30;;;;;;;1.85;0.80;;;;;;;;;;5012782;28;20151;-47
2021/07/14 13:43:02;;;;;;;2.50;0.88;;;;;;;;;;4996223;28;20065;-42
2021/07/14 13:45:31;;;;;;;1.55;0.90;;;;;;;;;;4985023;28;20030;-41
2021/07/14 13:47:58;;;;;;;1.90;0.70;;;;;;;;;;4985641;28;20518;-40
2021/07/14 13:50:24;;;;;;;1.55;0.77;;;;;;;;;;4993262;28;20044;-42
2021/07/14 13:53:04;;;;;;;1.17;0.82;;;;;;;;;;5010956;28;20030;-40
2021/07/14 13:55:31;;;;;;;1.67;0.90;;;;;;;;;;5029818;28;20028;-43
2021/07/14 13:58:07;;;;;;;1.30;0.90;;;;;;;;;;5028115;28;20048;-43
2021/07/14 14:00:33;;;;;;;1.63;0.80;;;;;;;;;;5028874;28;20517;-42
2021/07/14 14:02:58;;;;;;;1.67;0.93;;;;;;;;;;5029464;28;20579;-41
2021/07/14 14:05:24;;;;;;;3.00;1.05;;;;;;;;;;5022810;28;20026;-40
2021/07/14 14:07:49;;;;;;;1.73;1.00;;;;;;;;;;5006191;28;20668;-42
2021/07/14 14:10:23;;;;;;;1.60;0.95;;;;;;;;;;5009212;28;20037;-41
2021/07/14 14:12:53;;;;;;;2.08;1.20;;;;;;;;;;5008424;28;20412;-42
2021/07/14 14:15:23;;;;;;;1.83;1.02;;;;;;;;;;5009132;28;20029;-41
2021/07/14 14:17:53;;;;;;;1.30;0.90;;;;;;;;;;5008514;28;20022;-41
2021/07/14 14:20:31;;;;;;;1.58;1.10;;;;;;;;;;5008960;28;20073;-42
2021/07/14 14:22:57;;;;;;;1.10;0.70;;;;;;;;;;5024346;28;20033;-43
2021/07/14 14:25:25;;;;;;;2.55;1.00;;;;;;;;;;5008694;28;20038;-40
2021/07/14 14:30:23;;;;;;;1.50;0.90;;;;;;;;;;5009447;28;20041;-43
2021/07/14 14:32:53;;;;;;;1.63;1.00;;;;;;;;;;4999607;28;20044;-42
2021/07/14 14:35:20;;;;;;;1.67;1.10;;;;;;;;;;5011980;28;20425;-46
2021/07/14 14:37:46;;;;;;;2.03;1.10;;;;;;;;;;5009623;28;20408;-40
2021/07/14 14:40:12;;;;;;;1.65;0.95;;;;;;;;;;5006577;28;20030;-44
2021/07/14 14:42:38;;;;;;;2.05;1.40;;;;;;;;;;5013293;28;20025;-42
2021/07/14 14:45:05;;;;;;;3.67;1.30;;;;;;;;;;4996586;28;20390;-42
2021/07/14 14:47:30;;;;;;;2.20;1.17;;;;;;;;;;4988957;28;20100;-41
2021/07/14 14:49:55;;;;;;;3.08;1.10;;;;;;;;;;5006402;28;20505;-41
2021/07/14 14:52:21;;;;;;;2.40;1.20;;;;;;;;;;5008335;28;20049;-41
2021/07/14 14:54:46;;;;;;;1.80;1.17;;;;;;;;;;5007849;28;20485;-42
2021/07/14 14:57:11;;;;;;;1.90;1.10;;;;;;;;;;5013887;28;20095;-42